Time;durP1;ratioP1;P1;durP2;ratioP2;P2;SDS_P1;SDS_P2;PMS_P1;PMS_P2;Temp;Humidity;BMP_temperature;BMP_pressure;BME280_temperature;BME280_humidity;BME280_pressure;Samples;Min_cycle;Max_cycle;Signal;HPM_P1;HPM_P2
2022/04/06 00:01:37;;;;;;;6.60;1.85;;;;;;;;;;5074710;28;20048;-66
2022/04/06 00:04:04;;;;;;;11.02;1.55;;;;;;;;;;5057716;28;20033;-68
2022/04/06 00:06:30;;;;;;;5.00;1.35;;;;;;;;;;5036961;28;20527;-67
2022/04/06 00:08:56;;;;;;;5.25;1.17;;;;;;;;;;5054822;28;20129;-64
2022/04/06 00:11:22;;;;;;;5.50;1.45;;;;;;;;;;5059298;28;20442;-68
2022/04/06 00:13:48;;;;;;;10.68;1.55;;;;;;;;;;5074508;28;20061;-69
2022/04/06 00:16:15;;;;;;;7.82;1.48;;;;;;;;;;5074229;28;20029;-68
2022/04/06 00:18:40;;;;;;;7.13;1.15;;;;;;;;;;5075037;28;20017;-67
2022/04/06 00:21:06;;;;;;;12.50;1.48;;;;;;;;;;5056290;28;20418;-68
2022/04/06 00:23:32;;;;;;;10.63;1.50;;;;;;;;;;5072010;28;20048;-68
2022/04/06 00:25:59;;;;;;;16.80;2.03;;;;;;;;;;5071987;28;20037;-68
2022/04/06 00:28:25;;;;;;;11.80;1.90;;;;;;;;;;5083286;28;20055;-67
2022/04/06 00:30:51;;;;;;;16.73;1.73;;;;;;;;;;5073887;28;20067;-67
2022/04/06 00:33:21;;;;;;;12.82;1.95;;;;;;;;;;5068154;28;20025;-68
2022/04/06 00:35:47;;;;;;;11.75;1.55;;;;;;;;;;5070711;28;20020;-66
2022/04/06 00:38:13;;;;;;;7.95;1.40;;;;;;;;;;5074135;28;20472;-67
2022/04/06 00:40:40;;;;;;;6.03;1.30;;;;;;;;;;5074262;28;20025;-66
2022/04/06 00:43:10;;;;;;;15.30;1.77;;;;;;;;;;5071681;28;20398;-68
2022/04/06 00:45:38;;;;;;;9.07;1.88;;;;;;;;;;5069967;28;20123;-66
2022/04/06 00:48:04;;;;;;;7.82;1.73;;;;;;;;;;5071004;28;20029;-65
2022/04/06 00:50:30;;;;;;;7.80;1.75;;;;;;;;;;5065912;28;20052;-68
2022/04/06 00:52:57;;;;;;;14.25;1.85;;;;;;;;;;5060654;28;20407;-65
2022/04/06 00:55:31;;;;;;;6.70;1.50;;;;;;;;;;5054110;28;20124;-67
2022/04/06 00:57:58;;;;;;;5.93;1.60;;;;;;;;;;5073655;28;20032;-67
2022/04/06 01:00:24;;;;;;;7.93;1.70;;;;;;;;;;5073808;28;20049;-67
2022/04/06 01:02:50;;;;;;;6.97;1.48;;;;;;;;;;5072532;28;20075;-67
2022/04/06 01:05:16;;;;;;;6.70;1.77;;;;;;;;;;5073610;28;20060;-67
2022/04/06 01:07:43;;;;;;;7.68;1.83;;;;;;;;;;5064129;28;20051;-67
2022/04/06 01:10:09;;;;;;;11.45;1.67;;;;;;;;;;5053640;28;20100;-68
2022/04/06 01:12:35;;;;;;;7.30;1.80;;;;;;;;;;5053744;28;20024;-67
2022/04/06 01:15:01;;;;;;;4.10;1.33;;;;;;;;;;5067775;28;20028;-67
2022/04/06 01:17:34;;;;;;;8.65;1.95;;;;;;;;;;5062918;28;20211;-67
2022/04/06 01:20:00;;;;;;;7.47;1.90;;;;;;;;;;5053726;28;20028;-67
2022/04/06 01:22:27;;;;;;;9.52;2.05;;;;;;;;;;5068859;28;20471;-66
2022/04/06 01:24:53;;;;;;;5.13;1.65;;;;;;;;;;5053378;28;20045;-62
2022/04/06 01:27:19;;;;;;;7.63;1.65;;;;;;;;;;5073298;28;20044;-67
2022/04/06 01:29:47;;;;;;;7.18;1.70;;;;;;;;;;5078908;28;20375;-67
2022/04/06 01:32:14;;;;;;;10.82;2.25;;;;;;;;;;5074691;28;20037;-67
2022/04/06 01:34:40;;;;;;;6.82;1.77;;;;;;;;;;5072980;28;20021;-66
2022/04/06 01:37:07;;;;;;;6.40;2.05;;;;;;;;;;5073402;28;20028;-66
2022/04/06 01:39:34;;;;;;;9.25;1.88;;;;;;;;;;5073039;28;20031;-67
2022/04/06 01:42:00;;;;;;;6.43;1.42;;;;;;;;;;5068886;28;20033;-66
2022/04/06 01:44:26;;;;;;;6.93;1.85;;;;;;;;;;5054138;28;20048;-67
2022/04/06 01:46:52;;;;;;;5.43;1.45;;;;;;;;;;5071985;28;20418;-65
2022/04/06 01:52:13;;;;;;;4.95;1.30;;;;;;;;;;5063721;28;20063;-62
2022/04/06 01:54:43;;;;;;;7.80;1.63;;;;;;;;;;5073093;28;20024;-66
2022/04/06 01:57:09;;;;;;;4.25;1.38;;;;;;;;;;5072563;28;20020;-68
2022/04/06 01:59:35;;;;;;;5.57;1.40;;;;;;;;;;5072496;28;20024;-66
2022/04/06 02:02:02;;;;;;;6.90;1.67;;;;;;;;;;5055520;28;20025;-67
2022/04/06 02:04:28;;;;;;;9.63;1.58;;;;;;;;;;5052667;28;20454;-65
2022/04/06 02:06:54;;;;;;;4.53;1.50;;;;;;;;;;5052260;28;20132;-64
2022/04/06 02:09:20;;;;;;;5.03;1.73;;;;;;;;;;5052529;28;20021;-67
2022/04/06 02:11:47;;;;;;;6.35;1.40;;;;;;;;;;5052185;28;20040;-67
2022/04/06 02:14:13;;;;;;;5.45;1.42;;;;;;;;;;5052489;28;20028;-65
2022/04/06 02:16:39;;;;;;;8.98;1.73;;;;;;;;;;5052841;28;20037;-66
2022/04/06 02:19:05;;;;;;;5.32;1.73;;;;;;;;;;5060849;28;20021;-67
2022/04/06 02:21:32;;;;;;;13.40;2.22;;;;;;;;;;5072052;28;20033;-66
2022/04/06 02:23:57;;;;;;;12.77;2.00;;;;;;;;;;5053069;28;20056;-66
2022/04/06 02:26:23;;;;;;;11.38;1.58;;;;;;;;;;5064440;28;20430;-67
2022/04/06 02:28:49;;;;;;;9.20;2.17;;;;;;;;;;5082529;28;20035;-64
2022/04/06 02:31:15;;;;;;;14.70;1.73;;;;;;;;;;5067069;28;20025;-66
2022/04/06 02:33:41;;;;;;;6.93;1.50;;;;;;;;;;5051839;28;20115;-66
2022/04/06 02:36:07;;;;;;;5.75;1.30;;;;;;;;;;5070942;28;20040;-64
2022/04/06 02:38:38;;;;;;;7.35;1.75;;;;;;;;;;5072053;28;20021;-67
2022/04/06 02:41:05;;;;;;;6.95;1.30;;;;;;;;;;5071589;28;20055;-64
2022/04/06 02:43:31;;;;;;;6.75;1.60;;;;;;;;;;5034171;28;20017;-65
2022/04/06 02:45:57;;;;;;;7.65;1.50;;;;;;;;;;5051951;28;20694;-67
2022/04/06 02:48:23;;;;;;;8.82;1.65;;;;;;;;;;5034044;28;20021;-67
2022/04/06 02:50:49;;;;;;;7.88;1.85;;;;;;;;;;5056954;28;20079;-65
2022/04/06 02:53:15;;;;;;;10.88;1.60;;;;;;;;;;5070499;28;20071;-67
2022/04/06 02:55:41;;;;;;;6.80;1.52;;;;;;;;;;5046167;28;20464;-66
2022/04/06 02:58:07;;;;;;;10.02;2.03;;;;;;;;;;5053796;28;20035;-67
2022/04/06 03:00:35;;;;;;;5.57;1.40;;;;;;;;;;5071805;28;20024;-64
2022/04/06 03:03:01;;;;;;;5.80;1.45;;;;;;;;;;5056854;28;20021;-62
2022/04/06 03:05:27;;;;;;;6.88;1.50;;;;;;;;;;5060834;28;20025;-68
2022/04/06 03:07:53;;;;;;;18.70;2.03;;;;;;;;;;5056083;28;20017;-63
2022/04/06 03:10:19;;;;;;;20.55;2.53;;;;;;;;;;5051508;28;20388;-67
2022/04/06 03:12:45;;;;;;;15.70;1.70;;;;;;;;;;5051546;28;20472;-64
2022/04/06 03:15:12;;;;;;;6.68;1.55;;;;;;;;;;5052096;28;20043;-67
2022/04/06 03:17:38;;;;;;;7.80;1.60;;;;;;;;;;5051963;28;20126;-67
2022/04/06 03:20:05;;;;;;;8.50;1.65;;;;;;;;;;5051805;28;20481;-65
2022/04/06 03:22:31;;;;;;;8.90;1.50;;;;;;;;;;5051125;28;20029;-66
2022/04/06 03:24:57;;;;;;;11.20;1.50;;;;;;;;;;5060261;28;20048;-64
2022/04/06 03:27:24;;;;;;;5.18;1.35;;;;;;;;;;5067359;28;20036;-66
2022/04/06 03:29:50;;;;;;;8.65;1.33;;;;;;;;;;5078349;28;20028;-67
2022/04/06 03:32:16;;;;;;;8.68;1.50;;;;;;;;;;5078546;28;20369;-66
2022/04/06 03:34:42;;;;;;;7.10;1.40;;;;;;;;;;5069899;28;20024;-65
2022/04/06 03:37:08;;;;;;;9.27;1.20;;;;;;;;;;5075589;28;20237;-68
2022/04/06 03:39:34;;;;;;;3.95;1.40;;;;;;;;;;5075247;28;20024;-66
2022/04/06 03:42:00;;;;;;;9.60;1.27;;;;;;;;;;5068601;28;20035;-64
2022/04/06 03:44:26;;;;;;;7.30;1.42;;;;;;;;;;5075280;28;20434;-64
2022/04/06 03:46:53;;;;;;;6.55;1.40;;;;;;;;;;5066181;28;20119;-63
2022/04/06 03:49:19;;;;;;;4.45;1.20;;;;;;;;;;5055254;28;20544;-64
2022/04/06 03:51:45;;;;;;;9.82;1.33;;;;;;;;;;5055061;28;20112;-65
2022/04/06 03:54:11;;;;;;;3.92;1.20;;;;;;;;;;5073449;28;20021;-63
2022/04/06 03:56:38;;;;;;;4.82;1.65;;;;;;;;;;5072361;28;20028;-66
2022/04/06 03:59:04;;;;;;;3.72;1.00;;;;;;;;;;5067090;28;20031;-64
2022/04/06 04:01:30;;;;;;;13.77;1.55;;;;;;;;;;5074693;28;20034;-63
2022/04/06 04:03:57;;;;;;;9.18;1.55;;;;;;;;;;5074873;28;20029;-65
2022/04/06 04:06:23;;;;;;;3.83;1.25;;;;;;;;;;5074792;28;20036;-65
2022/04/06 04:08:48;;;;;;;14.77;1.55;;;;;;;;;;5071052;28;20036;-63
2022/04/06 04:11:15;;;;;;;5.50;1.83;;;;;;;;;;5054533;28;20037;-66
2022/04/06 04:13:41;;;;;;;13.55;1.88;;;;;;;;;;5054946;28;20044;-64
2022/04/06 04:16:08;;;;;;;5.72;1.15;;;;;;;;;;5062487;28;20471;-66
2022/04/06 04:18:34;;;;;;;9.13;1.33;;;;;;;;;;5074474;28;20416;-61
2022/04/06 04:23:44;;;;;;;13.45;1.30;;;;;;;;;;5054728;28;20495;-60
2022/04/06 04:26:11;;;;;;;8.55;1.30;;;;;;;;;;5064958;28;20036;-62
2022/04/06 04:28:37;;;;;;;7.85;1.30;;;;;;;;;;5062265;28;20067;-66
2022/04/06 04:31:03;;;;;;;5.90;1.33;;;;;;;;;;5064774;28;20504;-66
2022/04/06 04:33:29;;;;;;;6.47;1.13;;;;;;;;;;5070526;28;20056;-63
2022/04/06 04:35:55;;;;;;;5.32;1.10;;;;;;;;;;5039488;28;20070;-63
2022/04/06 04:38:21;;;;;;;4.30;1.17;;;;;;;;;;5069884;28;20107;-64
2022/04/06 04:40:47;;;;;;;4.00;1.30;;;;;;;;;;5074280;28;20036;-67
2022/04/06 04:43:13;;;;;;;6.78;1.10;;;;;;;;;;5073181;28;20020;-64
2022/04/06 04:45:39;;;;;;;6.22;1.20;;;;;;;;;;5074326;28;20035;-66
2022/04/06 04:48:05;;;;;;;6.18;1.52;;;;;;;;;;5074064;28;20059;-63
2022/04/06 04:50:31;;;;;;;8.50;1.30;;;;;;;;;;5055179;28;20028;-64
2022/04/06 04:52:57;;;;;;;7.82;1.30;;;;;;;;;;5066301;28;20033;-65
2022/04/06 04:55:23;;;;;;;9.07;1.50;;;;;;;;;;5072050;28;20036;-64
2022/04/06 04:57:49;;;;;;;6.00;1.20;;;;;;;;;;5073981;28;20039;-65
2022/04/06 05:00:16;;;;;;;7.13;1.63;;;;;;;;;;5073692;28;20028;-67
2022/04/06 05:02:41;;;;;;;6.88;1.27;;;;;;;;;;5071311;28;20082;-67
2022/04/06 05:05:08;;;;;;;6.88;1.75;;;;;;;;;;5068427;28;20107;-67
2022/04/06 05:07:37;;;;;;;8.02;1.75;;;;;;;;;;5053670;28;20033;-66
2022/04/06 05:10:06;;;;;;;12.00;1.67;;;;;;;;;;5067767;28;20027;-66
2022/04/06 05:12:32;;;;;;;11.18;1.50;;;;;;;;;;5035296;28;20502;-67
2022/04/06 05:15:01;;;;;;;10.30;1.40;;;;;;;;;;5053357;28;20500;-62
2022/04/06 05:17:28;;;;;;;9.23;1.80;;;;;;;;;;5053131;28;20041;-66
2022/04/06 05:19:55;;;;;;;9.75;2.15;;;;;;;;;;5052887;28;20024;-64
2022/04/06 05:22:21;;;;;;;11.07;1.52;;;;;;;;;;5062634;28;20037;-67
2022/04/06 05:24:47;;;;;;;15.02;2.47;;;;;;;;;;5071524;28;20060;-61
2022/04/06 05:27:13;;;;;;;13.80;1.60;;;;;;;;;;5057254;28;20056;-61
2022/04/06 05:29:41;;;;;;;12.95;1.95;;;;;;;;;;5071549;28;20028;-68
2022/04/06 05:32:08;;;;;;;13.35;1.98;;;;;;;;;;5054110;28;20021;-64
2022/04/06 05:34:35;;;;;;;24.35;2.20;;;;;;;;;;5063382;28;20497;-69
2022/04/06 05:37:01;;;;;;;28.83;2.05;;;;;;;;;;5059853;28;20025;-66
2022/04/06 05:39:27;;;;;;;13.88;1.77;;;;;;;;;;5072556;28;20044;-66
2022/04/06 05:41:53;;;;;;;31.70;2.35;;;;;;;;;;5054261;28;20021;-67
2022/04/06 05:44:19;;;;;;;42.10;2.72;;;;;;;;;;5053400;28;20038;-68
2022/04/06 05:46:45;;;;;;;83.93;3.90;;;;;;;;;;5060471;28;20060;-69
2022/04/06 05:49:11;;;;;;;38.83;3.47;;;;;;;;;;5044019;28;20059;-64
2022/04/06 05:51:37;;;;;;;40.83;3.45;;;;;;;;;;5048356;28;20194;-67
2022/04/06 05:54:03;;;;;;;35.88;2.78;;;;;;;;;;5049759;28;20078;-70
2022/04/06 05:56:30;;;;;;;43.75;2.38;;;;;;;;;;5072163;28;20036;-65
2022/04/06 05:58:56;;;;;;;48.63;3.58;;;;;;;;;;5072116;28;20545;-64
2022/04/06 06:01:22;;;;;;;47.88;3.33;;;;;;;;;;5072224;28;20037;-64
2022/04/06 06:03:49;;;;;;;31.77;3.40;;;;;;;;;;5059155;28;20403;-66
2022/04/06 06:06:15;;;;;;;29.75;2.78;;;;;;;;;;5062033;28;20093;-66
2022/04/06 06:08:41;;;;;;;35.05;2.85;;;;;;;;;;5070470;28;20033;-64
2022/04/06 06:11:10;;;;;;;25.95;2.70;;;;;;;;;;5069327;28;20024;-67
2022/04/06 06:13:36;;;;;;;23.88;3.45;;;;;;;;;;5053441;28;20040;-64
2022/04/06 06:16:04;;;;;;;18.88;2.22;;;;;;;;;;5059020;28;20021;-64
2022/04/06 06:18:30;;;;;;;20.15;2.33;;;;;;;;;;5054121;28;20091;-63
2022/04/06 06:20:59;;;;;;;20.15;2.30;;;;;;;;;;5067110;28;20032;-62
2022/04/06 06:23:25;;;;;;;25.55;2.40;;;;;;;;;;5062056;28;20050;-63
2022/04/06 06:25:51;;;;;;;11.57;2.13;;;;;;;;;;5064216;28;20049;-59
2022/04/06 06:28:17;;;;;;;19.55;2.30;;;;;;;;;;5066743;28;20023;-65
2022/04/06 06:30:43;;;;;;;23.55;2.33;;;;;;;;;;5062742;28;20021;-63
2022/04/06 06:33:09;;;;;;;24.08;2.47;;;;;;;;;;5058915;28;20047;-63
2022/04/06 06:35:35;;;;;;;24.05;2.13;;;;;;;;;;5067426;28;20380;-63
2022/04/06 06:38:01;;;;;;;13.02;1.45;;;;;;;;;;5059301;28;20029;-60
2022/04/06 06:40:28;;;;;;;8.85;1.65;;;;;;;;;;5057927;28;20055;-61
2022/04/06 06:42:54;;;;;;;12.27;2.17;;;;;;;;;;5049815;28;20033;-65
2022/04/06 06:45:20;;;;;;;14.65;2.13;;;;;;;;;;5049756;28;20036;-66
2022/04/06 06:47:47;;;;;;;8.63;1.40;;;;;;;;;;5051589;28;20029;-66
2022/04/06 06:50:14;;;;;;;8.82;1.55;;;;;;;;;;5051692;28;20097;-66
2022/04/06 06:52:40;;;;;;;12.13;1.85;;;;;;;;;;5068075;28;20119;-64
2022/04/06 06:55:10;;;;;;;8.88;1.60;;;;;;;;;;5071455;28;20112;-62
2022/04/06 06:57:36;;;;;;;10.10;1.67;;;;;;;;;;5071362;28;20142;-64
2022/04/06 07:00:02;;;;;;;10.93;1.70;;;;;;;;;;5071448;28;20017;-65
2022/04/06 07:02:28;;;;;;;12.02;1.88;;;;;;;;;;5071249;28;20029;-65
2022/04/06 07:04:54;;;;;;;9.82;1.48;;;;;;;;;;5071896;28;20035;-64
2022/04/06 07:07:20;;;;;;;14.50;1.83;;;;;;;;;;5071771;28;20099;-63
2022/04/06 07:09:46;;;;;;;11.48;1.58;;;;;;;;;;5066032;28;20584;-64
2022/04/06 07:12:12;;;;;;;6.88;1.50;;;;;;;;;;5056217;28;20660;-64
2022/04/06 07:14:38;;;;;;;5.95;1.27;;;;;;;;;;5074732;28;20021;-66
2022/04/06 07:17:04;;;;;;;8.35;1.88;;;;;;;;;;5074795;28;20031;-64
2022/04/06 07:19:30;;;;;;;11.02;1.67;;;;;;;;;;5072126;28;20021;-65
2022/04/06 07:21:56;;;;;;;7.78;1.50;;;;;;;;;;5072669;28;20048;-65
2022/04/06 07:24:23;;;;;;;7.65;1.75;;;;;;;;;;5074665;28;20384;-66
2022/04/06 07:26:49;;;;;;;8.55;1.73;;;;;;;;;;5075012;28;20120;-67
2022/04/06 07:29:15;;;;;;;5.80;1.20;;;;;;;;;;5076619;28;20107;-68
2022/04/06 07:31:42;;;;;;;6.10;1.35;;;;;;;;;;5082183;28;20032;-65
2022/04/06 07:34:08;;;;;;;4.57;1.13;;;;;;;;;;5073049;28;20024;-68
2022/04/06 07:36:34;;;;;;;5.22;1.50;;;;;;;;;;5041106;28;20067;-67
2022/04/06 07:39:02;;;;;;;7.20;1.30;;;;;;;;;;5065523;28;20016;-68
2022/04/06 07:41:28;;;;;;;7.65;1.50;;;;;;;;;;5063691;28;20145;-67
2022/04/06 07:43:54;;;;;;;5.18;1.30;;;;;;;;;;5059225;28;20029;-67
2022/04/06 07:46:20;;;;;;;4.55;1.50;;;;;;;;;;5061978;28;20059;-66
2022/04/06 07:48:46;;;;;;;6.65;1.50;;;;;;;;;;5066598;28;20044;-66
2022/04/06 07:51:12;;;;;;;12.05;1.63;;;;;;;;;;5053193;28;20036;-67
2022/04/06 07:53:38;;;;;;;5.60;1.40;;;;;;;;;;5065733;28;20025;-63
2022/04/06 07:56:06;;;;;;;5.75;1.52;;;;;;;;;;5066330;28;20075;-67
2022/04/06 07:58:32;;;;;;;10.20;1.75;;;;;;;;;;5066074;28;20405;-66
2022/04/06 08:00:58;;;;;;;6.70;2.00;;;;;;;;;;5063919;28;20504;-67
2022/04/06 08:03:24;;;;;;;8.82;2.25;;;;;;;;;;5044681;28;20040;-66
2022/04/06 08:05:50;;;;;;;7.28;1.80;;;;;;;;;;5064586;28;20056;-68
2022/04/06 08:08:16;;;;;;;8.93;1.90;;;;;;;;;;5065489;28;20021;-68
2022/04/06 08:10:42;;;;;;;7.65;1.80;;;;;;;;;;5063755;28;20085;-69
2022/04/06 08:13:09;;;;;;;7.18;1.95;;;;;;;;;;5064855;28;20439;-68
2022/04/06 08:15:34;;;;;;;6.18;1.50;;;;;;;;;;5066358;28;20021;-68
2022/04/06 08:18:00;;;;;;;10.13;1.98;;;;;;;;;;5064174;28;20024;-64
2022/04/06 08:20:26;;;;;;;11.05;1.95;;;;;;;;;;5062123;28;20816;-67
2022/04/06 08:22:57;;;;;;;7.22;1.70;;;;;;;;;;5062290;28;20143;-68
2022/04/06 08:25:29;;;;;;;12.93;2.33;;;;;;;;;;5061649;28;20053;-69
2022/04/06 08:28:20;;;;;;;6.93;2.07;;;;;;;;;;5064519;28;20052;-68
2022/04/06 08:30:47;;;;;;;12.07;2.05;;;;;;;;;;5065322;28;20017;-69
2022/04/06 08:33:15;;;;;;;13.90;2.17;;;;;;;;;;5063608;28;20024;-70
2022/04/06 08:35:42;;;;;;;11.90;2.65;;;;;;;;;;5062756;28;20031;-72
2022/04/06 08:38:26;;;;;;;13.18;2.42;;;;;;;;;;5062129;28;20078;-73
2022/04/06 08:40:53;;;;;;;21.35;2.53;;;;;;;;;;5056320;28;20131;-72
2022/04/06 08:43:42;;;;;;;14.02;2.92;;;;;;;;;;5071887;28;20029;-72
2022/04/06 08:46:10;;;;;;;13.60;2.97;;;;;;;;;;5043338;28;20106;-72
2022/04/06 08:48:37;;;;;;;22.20;3.33;;;;;;;;;;5061773;28;20017;-73
2022/04/06 08:51:05;;;;;;;15.95;2.75;;;;;;;;;;5065395;28;20396;-74
2022/04/06 08:53:31;;;;;;;25.95;3.75;;;;;;;;;;5068875;28;20012;-71
2022/04/06 08:55:57;;;;;;;27.98;3.35;;;;;;;;;;5063451;28;20377;-73
2022/04/06 08:58:23;;;;;;;35.25;4.40;;;;;;;;;;5063505;28;20448;-70
2022/04/06 09:00:49;;;;;;;32.05;3.67;;;;;;;;;;5066672;28;20034;-72
2022/04/06 09:03:16;;;;;;;35.20;3.70;;;;;;;;;;5063791;28;20023;-72
2022/04/06 09:15:12;;;;;;;29.40;4.07;;;;;;;;;;5079754;27;20342;-69
2022/04/06 09:17:45;;;;;;;19.63;3.78;;;;;;;;;;5076929;28;20036;-69
2022/04/06 09:20:11;;;;;;;25.10;3.90;;;;;;;;;;5060098;28;20490;-67
2022/04/06 09:22:37;;;;;;;18.90;3.47;;;;;;;;;;5079365;28;20053;-67
2022/04/06 09:25:05;;;;;;;22.00;3.28;;;;;;;;;;5081823;28;20106;-67
2022/04/06 09:27:31;;;;;;;19.20;3.08;;;;;;;;;;5072602;28;20075;-69
2022/04/06 09:29:58;;;;;;;15.10;2.70;;;;;;;;;;5059876;28;20032;-67
2022/04/06 09:32:24;;;;;;;16.27;3.42;;;;;;;;;;5074756;28;20098;-67
2022/04/06 09:34:50;;;;;;;19.73;3.38;;;;;;;;;;5078601;28;20036;-67
2022/04/06 09:37:28;;;;;;;21.17;3.03;;;;;;;;;;5078342;28;20378;-67
2022/04/06 09:39:56;;;;;;;17.95;2.80;;;;;;;;;;5068979;28;20398;-67
2022/04/06 09:42:26;;;;;;;18.02;3.03;;;;;;;;;;5075330;28;20023;-67
2022/04/06 09:47:38;;;;;;;10.90;3.25;;;;;;;;;;5078734;28;20043;-67
2022/04/06 09:50:08;;;;;;;15.90;3.45;;;;;;;;;;5054983;28;20463;-67
2022/04/06 09:52:35;;;;;;;15.13;3.15;;;;;;;;;;5077146;28;20028;-68
2022/04/06 09:55:02;;;;;;;13.13;2.42;;;;;;;;;;5075175;28;20036;-67
2022/04/06 09:57:28;;;;;;;17.02;3.90;;;;;;;;;;5079547;28;20070;-67
2022/04/06 09:59:55;;;;;;;16.73;3.28;;;;;;;;;;5083865;28;20116;-65
2022/04/06 10:02:22;;;;;;;11.65;2.72;;;;;;;;;;5058467;28;20039;-67
2022/04/06 10:04:50;;;;;;;10.90;3.17;;;;;;;;;;5080096;28;20481;-66
2022/04/06 10:07:17;;;;;;;12.95;3.08;;;;;;;;;;5075346;28;20386;-66
2022/04/06 10:09:43;;;;;;;12.57;2.80;;;;;;;;;;5077523;28;20031;-66
2022/04/06 10:12:11;;;;;;;15.77;3.85;;;;;;;;;;5081873;28;20055;-66
2022/04/06 10:14:37;;;;;;;15.43;3.00;;;;;;;;;;5072871;28;20067;-65
2022/04/06 10:17:04;;;;;;;19.52;2.97;;;;;;;;;;5070308;28;20024;-66
2022/04/06 10:19:34;;;;;;;13.48;3.15;;;;;;;;;;5073887;28;20021;-65
2022/04/06 10:22:02;;;;;;;29.27;9.57;;;;;;;;;;5074929;28;20025;-66
2022/04/06 10:24:51;;;;;;;50.75;18.10;;;;;;;;;;5072377;28;20025;-66
2022/04/06 10:27:26;;;;;;;41.42;13.45;;;;;;;;;;5061228;28;20038;-66
2022/04/06 10:30:10;;;;;;;33.63;11.07;;;;;;;;;;5061675;28;20460;-65
2022/04/06 10:32:37;;;;;;;35.88;11.70;;;;;;;;;;5059059;28;20146;-66
2022/04/06 10:35:24;;;;;;;34.25;10.82;;;;;;;;;;5061283;28;20089;-66
2022/04/06 10:37:51;;;;;;;35.28;13.00;;;;;;;;;;5053742;28;20037;-66
2022/04/06 10:40:17;;;;;;;34.38;12.13;;;;;;;;;;5052421;28;20044;-66
2022/04/06 10:42:45;;;;;;;37.83;13.18;;;;;;;;;;5059596;28;20048;-64
2022/04/06 10:48:25;;;;;;;40.92;12.88;;;;;;;;;;5059293;28;20017;-66
2022/04/06 10:50:51;;;;;;;36.78;13.07;;;;;;;;;;5013849;28;20041;-66
2022/04/06 10:53:20;;;;;;;34.42;11.60;;;;;;;;;;5042621;28;20033;-67
2022/04/06 10:56:13;;;;;;;31.60;11.10;;;;;;;;;;5053676;28;20029;-66
2022/04/06 10:59:01;;;;;;;33.38;10.57;;;;;;;;;;5049889;28;20112;-67
2022/04/06 11:01:29;;;;;;;32.22;10.43;;;;;;;;;;5043007;28;20048;-63
2022/04/06 11:03:59;;;;;;;26.27;8.75;;;;;;;;;;5053490;28;20104;-65
2022/04/06 11:06:49;;;;;;;23.77;8.07;;;;;;;;;;5053600;28;20028;-65
2022/04/06 11:12:23;;;;;;;18.15;6.65;;;;;;;;;;5053599;28;20650;-65
2022/04/06 11:14:50;;;;;;;16.63;5.18;;;;;;;;;;5053298;28;20051;-66
2022/04/06 11:17:38;;;;;;;13.75;4.95;;;;;;;;;;5053039;28;20049;-67
2022/04/06 11:20:06;;;;;;;13.45;4.75;;;;;;;;;;5046077;28;20021;-65
2022/04/06 11:22:32;;;;;;;13.75;4.10;;;;;;;;;;5052476;28;20036;-65
2022/04/06 11:24:59;;;;;;;17.77;4.28;;;;;;;;;;5052703;28;20025;-66
2022/04/06 11:27:27;;;;;;;13.00;4.18;;;;;;;;;;5049688;28;20103;-66
2022/04/06 11:30:05;;;;;;;11.60;3.70;;;;;;;;;;5039392;28;20028;-65
2022/04/06 11:32:31;;;;;;;12.43;3.53;;;;;;;;;;5034426;28;20025;-66
2022/04/06 11:35:01;;;;;;;11.70;3.13;;;;;;;;;;5053176;28;20071;-64
2022/04/06 11:37:28;;;;;;;15.70;3.75;;;;;;;;;;5034441;28;20033;-67
2022/04/06 11:39:57;;;;;;;8.63;3.00;;;;;;;;;;5052832;28;20025;-66
2022/04/06 11:42:23;;;;;;;11.45;2.63;;;;;;;;;;5052725;28;20032;-65
2022/04/06 11:44:50;;;;;;;7.85;2.65;;;;;;;;;;5052877;28;20139;-65
2022/04/06 11:47:16;;;;;;;8.32;2.53;;;;;;;;;;5053229;28;20028;-66
2022/04/06 11:49:43;;;;;;;10.02;2.75;;;;;;;;;;5052752;28;20037;-64
2022/04/06 11:52:09;;;;;;;8.60;2.15;;;;;;;;;;5052488;28;20104;-66
2022/04/06 11:54:35;;;;;;;9.57;2.45;;;;;;;;;;5052450;28;20132;-66
2022/04/06 11:57:01;;;;;;;10.25;2.70;;;;;;;;;;5052874;28;20104;-65
2022/04/06 11:59:31;;;;;;;8.38;1.95;;;;;;;;;;5052502;28;20029;-67
2022/04/06 12:01:57;;;;;;;7.28;2.17;;;;;;;;;;5052551;28;20025;-64
2022/04/06 12:04:24;;;;;;;5.20;1.77;;;;;;;;;;5052261;28;20037;-66
2022/04/06 12:06:54;;;;;;;6.63;2.05;;;;;;;;;;5052611;28;20022;-66
2022/04/06 12:09:21;;;;;;;8.65;1.85;;;;;;;;;;5052511;28;20053;-66
2022/04/06 12:11:53;;;;;;;7.97;1.88;;;;;;;;;;5034084;28;20119;-67
2022/04/06 12:14:19;;;;;;;9.18;2.53;;;;;;;;;;5051988;28;20049;-66
2022/04/06 12:16:48;;;;;;;7.15;2.10;;;;;;;;;;5052285;28;20329;-65
2022/04/06 12:19:16;;;;;;;7.55;1.88;;;;;;;;;;5052397;28;20040;-66
2022/04/06 12:21:43;;;;;;;5.22;1.88;;;;;;;;;;5051924;28;20021;-65
2022/04/06 12:24:11;;;;;;;5.03;1.50;;;;;;;;;;5054593;28;20040;-66
2022/04/06 12:26:56;;;;;;;4.47;1.90;;;;;;;;;;5072179;28;20082;-65
2022/04/06 12:29:22;;;;;;;6.68;1.98;;;;;;;;;;5034580;28;20028;-67
2022/04/06 12:31:49;;;;;;;6.57;1.77;;;;;;;;;;5051916;28;20455;-66
2022/04/06 12:34:27;;;;;;;3.85;1.65;;;;;;;;;;5052120;28;20123;-66
2022/04/06 12:36:53;;;;;;;4.95;1.52;;;;;;;;;;5052153;28;20036;-66
2022/04/06 12:39:19;;;;;;;1.95;1.20;;;;;;;;;;5051969;28;20092;-66
2022/04/06 12:41:56;;;;;;;4.95;1.55;;;;;;;;;;5051883;28;20021;-65
2022/04/06 12:44:22;;;;;;;5.32;1.65;;;;;;;;;;5051815;28;20029;-65
2022/04/06 12:46:48;;;;;;;3.63;1.58;;;;;;;;;;5052050;28;20021;-67
2022/04/06 12:49:25;;;;;;;4.20;1.77;;;;;;;;;;5050974;28;20094;-65
2022/04/06 12:52:03;;;;;;;7.00;1.70;;;;;;;;;;5051644;28;20409;-66
2022/04/06 12:54:33;;;;;;;4.40;1.50;;;;;;;;;;5051449;28;20116;-65
2022/04/06 12:57:11;;;;;;;5.78;1.58;;;;;;;;;;5051687;28;20017;-65
2022/04/06 12:59:37;;;;;;;5.72;1.85;;;;;;;;;;5051474;28;20031;-65
2022/04/06 13:02:04;;;;;;;3.05;1.58;;;;;;;;;;5033585;28;20024;-66
2022/04/06 13:04:30;;;;;;;5.10;1.60;;;;;;;;;;5051508;28;20061;-64
2022/04/06 13:06:56;;;;;;;4.35;1.70;;;;;;;;;;5051341;28;20070;-65
2022/04/06 13:09:22;;;;;;;4.25;1.70;;;;;;;;;;5051601;28;20033;-66
2022/04/06 13:11:48;;;;;;;3.40;1.50;;;;;;;;;;5051300;28;20032;-67
2022/04/06 13:14:14;;;;;;;4.72;1.70;;;;;;;;;;5031371;28;20062;-65
2022/04/06 13:16:40;;;;;;;4.38;1.60;;;;;;;;;;5031650;28;20033;-66
2022/04/06 13:19:07;;;;;;;7.53;2.28;;;;;;;;;;5049983;28;20040;-64
2022/04/06 13:21:37;;;;;;;4.00;1.40;;;;;;;;;;5051327;28;20025;-64
2022/04/06 13:24:06;;;;;;;5.00;1.77;;;;;;;;;;5051363;28;20029;-66
2022/04/06 13:26:32;;;;;;;2.83;1.40;;;;;;;;;;5051366;28;20387;-66
2022/04/06 13:28:58;;;;;;;4.40;1.73;;;;;;;;;;5051345;28;20116;-66
2022/04/06 13:31:24;;;;;;;4.90;1.70;;;;;;;;;;5033291;28;20111;-65
2022/04/06 13:33:51;;;;;;;4.32;1.73;;;;;;;;;;5051517;28;20025;-65
2022/04/06 13:36:17;;;;;;;6.13;1.60;;;;;;;;;;5033487;28;20028;-65
2022/04/06 13:38:43;;;;;;;4.88;1.63;;;;;;;;;;5051494;28;20032;-66
2022/04/06 13:41:10;;;;;;;4.50;1.85;;;;;;;;;;5051188;28;20029;-65
2022/04/06 13:43:36;;;;;;;3.30;1.40;;;;;;;;;;5033301;28;20428;-68
2022/04/06 13:46:04;;;;;;;4.45;1.67;;;;;;;;;;5051537;28;20464;-65
2022/04/06 13:48:30;;;;;;;9.45;2.15;;;;;;;;;;5051251;28;20311;-65
2022/04/06 13:50:56;;;;;;;4.50;1.90;;;;;;;;;;5033383;28;20071;-66
2022/04/06 13:53:22;;;;;;;3.70;2.17;;;;;;;;;;5051472;28;20366;-64
2022/04/06 13:55:48;;;;;;;4.15;1.98;;;;;;;;;;5051047;28;20061;-65
2022/04/06 13:58:14;;;;;;;6.35;2.22;;;;;;;;;;5051044;28;20057;-65
2022/04/06 14:00:41;;;;;;;2.60;1.90;;;;;;;;;;5052812;28;20036;-67
2022/04/06 14:03:07;;;;;;;7.03;2.25;;;;;;;;;;5054634;28;20602;-67
2022/04/06 14:05:33;;;;;;;5.88;2.20;;;;;;;;;;5054847;28;20044;-65
2022/04/06 14:07:59;;;;;;;3.53;2.05;;;;;;;;;;5054796;28;20033;-65
2022/04/06 14:10:25;;;;;;;6.32;2.30;;;;;;;;;;5036699;28;20182;-65
2022/04/06 14:12:51;;;;;;;5.80;2.30;;;;;;;;;;5054747;28;20100;-65
2022/04/06 14:15:17;;;;;;;4.10;2.10;;;;;;;;;;5037222;28;20443;-67
2022/04/06 14:17:44;;;;;;;2.83;1.92;;;;;;;;;;5048091;28;20022;-68
2022/04/06 14:20:11;;;;;;;7.57;2.38;;;;;;;;;;5035185;28;20037;-67
2022/04/06 14:22:37;;;;;;;4.68;2.20;;;;;;;;;;5034894;28;20118;-67
2022/04/06 14:25:15;;;;;;;5.97;2.30;;;;;;;;;;5054671;28;20487;-68
2022/04/06 14:27:44;;;;;;;2.78;1.85;;;;;;;;;;5051635;28;20060;-66
2022/04/06 14:30:10;;;;;;;4.68;1.95;;;;;;;;;;5054728;28;20032;-68
2022/04/06 14:32:36;;;;;;;6.85;2.30;;;;;;;;;;5054582;28;20048;-65
2022/04/06 14:35:02;;;;;;;4.70;2.10;;;;;;;;;;5054971;28;20031;-66
2022/04/06 14:37:28;;;;;;;3.83;1.90;;;;;;;;;;5054552;28;20163;-68
2022/04/06 14:39:54;;;;;;;3.63;1.75;;;;;;;;;;5054654;28;20028;-67
2022/04/06 14:42:20;;;;;;;4.40;1.77;;;;;;;;;;5054683;28;20029;-67
2022/04/06 14:44:46;;;;;;;4.50;1.60;;;;;;;;;;5054633;28;20535;-67
2022/04/06 14:47:12;;;;;;;5.10;1.85;;;;;;;;;;5054374;28;20116;-68
2022/04/06 14:49:38;;;;;;;3.95;1.20;;;;;;;;;;5054557;28;20107;-67
2022/04/06 14:52:04;;;;;;;3.53;1.50;;;;;;;;;;5054137;28;20017;-65
2022/04/06 14:54:30;;;;;;;2.25;1.20;;;;;;;;;;5054072;28;20029;-65
2022/04/06 14:56:57;;;;;;;2.75;1.23;;;;;;;;;;5036451;28;20028;-66
2022/04/06 14:59:23;;;;;;;2.50;1.35;;;;;;;;;;5054464;28;20025;-65
2022/04/06 15:01:49;;;;;;;2.60;1.48;;;;;;;;;;5045941;28;20420;-65
2022/04/06 15:04:15;;;;;;;2.90;1.40;;;;;;;;;;5035879;28;20045;-68